Aviation Digital Data Service (ADDS)

Output produced by METARs form (1028 UTC 19 February 2019)
found at http://www.aviationweather.gov/metar/data/
 
METAR text: RJOM 191000Z VRB01KT 9999 FEW005 SCT035 11/10 Q1013
Conditions at: RJOM (MATSUYAMA AIRPOR, JP) observed 1000 UTC 19 February 2019
Temperature: 11.0°C (52°F)
Dewpoint: 10.0°C (50°F) [RH = 94%]
Pressure (altimeter): 29.91 inches Hg (1013.0 mb)
Winds: variable direction winds at 1 MPH (1 knots; 0.5 m/s)
Visibility: 6 or more miles (10+ km)
Ceiling: at least 12,000 feet AGL
Clouds: few clouds at 500 feet AGL
scattered clouds at 3500 feet AGL
Weather: no significant weather observed at this time

METAR text: RJOM 190900Z VRB02KT 9999 FEW005 SCT050 BKN/// 11/10 Q1013
Conditions at: RJOM (MATSUYAMA AIRPOR, JP) observed 0900 UTC 19 February 2019
Temperature: 11.0°C (52°F)
Dewpoint: 10.0°C (50°F) [RH = 94%]
Pressure (altimeter): 29.91 inches Hg (1013.0 mb)
Winds: variable direction winds at 2 MPH (2 knots; 1.0 m/s)
Visibility: 6 or more miles (10+ km)
Ceiling: at least 12,000 feet AGL
Clouds: few clouds at 500 feet AGL
scattered clouds at 5000 feet AGL
Weather: no significant weather observed at this time

METAR text: RJOM 190800Z 34005KT 9999 FEW005 SCT025 12/11 Q1012
Conditions at: RJOM (MATSUYAMA AIRPOR, JP) observed 0800 UTC 19 February 2019
Temperature: 12.0°C (54°F)
Dewpoint: 11.0°C (52°F) [RH = 94%]
Pressure (altimeter): 29.88 inches Hg (1012.0 mb)
Winds: from the NNW (340 degrees) at 6 MPH (5 knots; 2.6 m/s)
Visibility: 6 or more miles (10+ km)
Ceiling: at least 12,000 feet AGL
Clouds: few clouds at 500 feet AGL
scattered clouds at 2500 feet AGL
Weather: no significant weather observed at this time

METAR text: RJOM 190700Z 02007KT 7000 FEW003 SCT040 BKN100 11/10 Q1012
Conditions at: RJOM (MATSUYAMA AIRPOR, JP) observed 0700 UTC 19 February 2019
Temperature: 11.0°C (52°F)
Dewpoint: 10.0°C (50°F) [RH = 94%]
Pressure (altimeter): 29.88 inches Hg (1012.0 mb)
Winds: from the NNE (20 degrees) at 8 MPH (7 knots; 3.6 m/s)
Visibility: 4 miles ( 7 km)
Ceiling: 10000 feet AGL
Clouds: few clouds at 300 feet AGL
scattered clouds at 4000 feet AGL
broken clouds at 10000 feet AGL
Weather: no significant weather observed at this time

METAR text: RJOM 190600Z 36014KT 6000 -RA FEW002 SCT040 BKN060 11/10 Q1012
Conditions at: RJOM (MATSUYAMA AIRPOR, JP) observed 0600 UTC 19 February 2019
Temperature: 11.0°C (52°F)
Dewpoint: 10.0°C (50°F) [RH = 94%]
Pressure (altimeter): 29.88 inches Hg (1012.0 mb)
Winds: from the N (360 degrees) at 16 MPH (14 knots; 7.2 m/s)
Visibility: 4 miles ( 6 km)
Ceiling: 6000 feet AGL
Clouds: few clouds at 200 feet AGL
scattered clouds at 4000 feet AGL
broken clouds at 6000 feet AGL
Weather: -RA  (light rain)

METAR text: RJOM 190500Z 02005KT 6000 -RA FEW003 SCT050 BKN080 11/11 Q1011
Conditions at: RJOM (MATSUYAMA AIRPOR, JP) observed 0500 UTC 19 February 2019
Temperature: 11.0°C (52°F)
Dewpoint: 11.0°C (52°F) [RH = 100%]
Pressure (altimeter): 29.85 inches Hg (1011.0 mb)
Winds: from the NNE (20 degrees) at 6 MPH (5 knots; 2.6 m/s)
Visibility: 4 miles ( 6 km)
Ceiling: 8000 feet AGL
Clouds: few clouds at 300 feet AGL
scattered clouds at 5000 feet AGL
broken clouds at 8000 feet AGL
Weather: -RA  (light rain)

METAR text: RJOM 190432Z 03008KT 5000 -RA BR FEW003 SCT045 BKN070 11/10 Q1012 RMK 2ST003 4SC045 6AC070 A2991
Conditions at: RJOM (MATSUYAMA AIRPOR, JP) observed 0432 UTC 19 February 2019
Temperature: 11.0°C (52°F)
Dewpoint: 10.0°C (50°F) [RH = 94%]
Pressure (altimeter): 29.88 inches Hg (1012.0 mb)
Winds: from the NNE (30 degrees) at 9 MPH (8 knots; 4.1 m/s)
Visibility: 3 miles ( 5 km)
Ceiling: 7000 feet AGL
Clouds: few clouds at 300 feet AGL
scattered clouds at 4500 feet AGL
broken clouds at 7000 feet AGL
Weather: -RA BR  (light rain, mist)

METAR text: RJOM 190414Z 02013KT 4500 RA BR FEW003 BKN040 BKN060 10/10 Q1013 RMK 2ST003 5SC040 6SC060 A2992
Conditions at: RJOM (MATSUYAMA AIRPOR, JP) observed 0414 UTC 19 February 2019
Temperature: 10.0°C (50°F)
Dewpoint: 10.0°C (50°F) [RH = 100%]
Pressure (altimeter): 29.91 inches Hg (1013.0 mb)
Winds: from the NNE (20 degrees) at 15 MPH (13 knots; 6.7 m/s)
Visibility: 2.80 miles (4.51 km)
Ceiling: 4000 feet AGL
Clouds: few clouds at 300 feet AGL
broken clouds at 4000 feet AGL
broken clouds at 6000 feet AGL
Weather: RA BR  (moderate rain, mist)

METAR text: RJOM 190400Z 01013KT 4000 -RA BR FEW003 BKN040 BKN060 11/10 Q1013
Conditions at: RJOM (MATSUYAMA AIRPOR, JP) observed 0400 UTC 19 February 2019
Temperature: 11.0°C (52°F)
Dewpoint: 10.0°C (50°F) [RH = 94%]
Pressure (altimeter): 29.91 inches Hg (1013.0 mb)
Winds: from the N (10 degrees) at 15 MPH (13 knots; 6.7 m/s)
Visibility: 2.49 miles (4.01 km)
Ceiling: 4000 feet AGL
Clouds: few clouds at 300 feet AGL
broken clouds at 4000 feet AGL
broken clouds at 6000 feet AGL
Weather: -RA BR  (light rain, mist)

METAR text: RJOM 190345Z 36014KT 3500 RA BR FEW003 BKN040 BKN060 10/10 Q1013 RMK 1ST003 5SC040 7SC060 A2994
Conditions at: RJOM (MATSUYAMA AIRPOR, JP) observed 0345 UTC 19 February 2019
Temperature: 10.0°C (50°F)
Dewpoint: 10.0°C (50°F) [RH = 100%]
Pressure (altimeter): 29.91 inches Hg (1013.0 mb)
Winds: from the N (360 degrees) at 16 MPH (14 knots; 7.2 m/s)
Visibility: 2.17 miles (3.49 km)
Ceiling: 4000 feet AGL
Clouds: few clouds at 300 feet AGL
broken clouds at 4000 feet AGL
broken clouds at 6000 feet AGL
Weather: RA BR  (moderate rain, mist)

METAR text: RJOM 190300Z 36007KT 4500 -RA BR FEW003 SCT040 BKN060 10/09 Q1014
Conditions at: RJOM (MATSUYAMA AIRPOR, JP) observed 0300 UTC 19 February 2019
Temperature: 10.0°C (50°F)
Dewpoint: 9.0°C (48°F) [RH = 93%]
Pressure (altimeter): 29.94 inches Hg (1014.0 mb)
Winds: from the N (360 degrees) at 8 MPH (7 knots; 3.6 m/s)
Visibility: 2.80 miles (4.51 km)
Ceiling: 6000 feet AGL
Clouds: few clouds at 300 feet AGL
scattered clouds at 4000 feet AGL
broken clouds at 6000 feet AGL
Weather: -RA BR  (light rain, mist)

METAR text: RJOM 190215Z 36014KT 4500 -RA BR FEW003 SCT040 BKN060 10/09 Q1015 RMK 1ST003 4SC040 6SC060 A3000
Conditions at: RJOM (MATSUYAMA AIRPOR, JP) observed 0215 UTC 19 February 2019
Temperature: 10.0°C (50°F)
Dewpoint: 9.0°C (48°F) [RH = 93%]
Pressure (altimeter): 29.97 inches Hg (1015.0 mb)
Winds: from the N (360 degrees) at 16 MPH (14 knots; 7.2 m/s)
Visibility: 2.80 miles (4.51 km)
Ceiling: 6000 feet AGL
Clouds: few clouds at 300 feet AGL
scattered clouds at 4000 feet AGL
broken clouds at 6000 feet AGL
Weather: -RA BR  (light rain, mist)

METAR text: RJOM 190200Z 36008KT 5000 RA BR FEW003 SCT040 BKN050 11/10 Q1015
Conditions at: RJOM (MATSUYAMA AIRPOR, JP) observed 0200 UTC 19 February 2019
Temperature: 11.0°C (52°F)
Dewpoint: 10.0°C (50°F) [RH = 94%]
Pressure (altimeter): 29.97 inches Hg (1015.0 mb)
Winds: from the N (360 degrees) at 9 MPH (8 knots; 4.1 m/s)
Visibility: 3 miles ( 5 km)
Ceiling: 5000 feet AGL
Clouds: few clouds at 300 feet AGL
scattered clouds at 4000 feet AGL
broken clouds at 5000 feet AGL
Weather: RA BR  (moderate rain, mist)

METAR text: RJOM 190125Z 09006KT 050V120 6000 -RA FEW015 SCT040 BKN090 09/09 Q1015 RMK 1CU015 4SC040 7AC090 A3000 P/FR
Conditions at: RJOM (MATSUYAMA AIRPOR, JP) observed 0125 UTC 19 February 2019
Temperature: 9.0°C (48°F)
Dewpoint: 9.0°C (48°F) [RH = 100%]
Pressure (altimeter): 29.97 inches Hg (1015.0 mb)
Winds: from the E (90 degrees) at 7 MPH (6 knots; 3.1 m/s)
Visibility: 4 miles ( 6 km)
Ceiling: 9000 feet AGL
Clouds: few clouds at 1500 feet AGL
scattered clouds at 4000 feet AGL
broken clouds at 9000 feet AGL
Weather: -RA  (light rain)

METAR text: RJOM 190100Z 01015KT 7000 -RA FEW015 BKN040 BKN070 09/08 Q1016
Conditions at: RJOM (MATSUYAMA AIRPOR, JP) observed 0100 UTC 19 February 2019
Temperature: 9.0°C (48°F)
Dewpoint: 8.0°C (46°F) [RH = 93%]
Pressure (altimeter): 30.00 inches Hg (1016.0 mb)
Winds: from the N (10 degrees) at 17 MPH (15 knots; 7.7 m/s)
Visibility: 4 miles ( 7 km)
Ceiling: 4000 feet AGL
Clouds: few clouds at 1500 feet AGL
broken clouds at 4000 feet AGL
broken clouds at 7000 feet AGL
Weather: -RA  (light rain)

METAR text: RJOM 190000Z 01011KT 6000 FEW010 SCT040 BKN060 09/08 Q1018
Conditions at: RJOM (MATSUYAMA AIRPOR, JP) observed 0000 UTC 19 February 2019
Temperature: 9.0°C (48°F)
Dewpoint: 8.0°C (46°F) [RH = 93%]
Pressure (altimeter): 30.06 inches Hg (1018.0 mb)
Winds: from the N (10 degrees) at 13 MPH (11 knots; 5.7 m/s)
Visibility: 4 miles ( 6 km)
Ceiling: 6000 feet AGL
Clouds: few clouds at 1000 feet AGL
scattered clouds at 4000 feet AGL
broken clouds at 6000 feet AGL
Weather: no significant weather observed at this time

METAR text: RJOM 182311Z 01014KT 4500 -RA BR FEW003 SCT040 BKN070 09/08 Q1019 RMK 1ST003 4SC040 6AC070 A3009
Conditions at: RJOM (MATSUYAMA AIRPOR, JP) observed 2311 UTC 18 February 2019
Temperature: 9.0°C (48°F)
Dewpoint: 8.0°C (46°F) [RH = 93%]
Pressure (altimeter): 30.09 inches Hg (1019.0 mb)
Winds: from the N (10 degrees) at 16 MPH (14 knots; 7.2 m/s)
Visibility: 2.80 miles (4.51 km)
Ceiling: 7000 feet AGL
Clouds: few clouds at 300 feet AGL
scattered clouds at 4000 feet AGL
broken clouds at 7000 feet AGL
Weather: -RA BR  (light rain, mist)

METAR text: RJOM 182300Z 01004KT 330V040 4200 -RA BR FEW003 SCT040 BKN070 08/08 Q1019
Conditions at: RJOM (MATSUYAMA AIRPOR, JP) observed 2300 UTC 18 February 2019
Temperature: 8.0°C (46°F)
Dewpoint: 8.0°C (46°F) [RH = 100%]
Pressure (altimeter): 30.09 inches Hg (1019.0 mb)
Winds: from the N (10 degrees) at 5 MPH (4 knots; 2.1 m/s)
Visibility: 2.61 miles (4.20 km)
Ceiling: 7000 feet AGL
Clouds: few clouds at 300 feet AGL
scattered clouds at 4000 feet AGL
broken clouds at 7000 feet AGL
Weather: -RA BR  (light rain, mist)

METAR text: RJOM 182200Z 04006KT 4000 -RA BR FEW005 SCT040 BKN070 08/08 Q1019
Conditions at: RJOM (MATSUYAMA AIRPOR, JP) observed 2200 UTC 18 February 2019
Temperature: 8.0°C (46°F)
Dewpoint: 8.0°C (46°F) [RH = 100%]
Pressure (altimeter): 30.09 inches Hg (1019.0 mb)
Winds: from the NE (40 degrees) at 7 MPH (6 knots; 3.1 m/s)
Visibility: 2.49 miles (4.01 km)
Ceiling: 7000 feet AGL
Clouds: few clouds at 500 feet AGL
scattered clouds at 4000 feet AGL
broken clouds at 7000 feet AGL
Weather: -RA BR  (light rain, mist)

METAR text: RJOM 182137Z 03005KT 4000 -RA BR FEW015 SCT040 BKN090 08/07 Q1020 RMK 1ST015 4SC040 6AC090 A3012
Conditions at: RJOM (MATSUYAMA AIRPOR, JP) observed 2137 UTC 18 February 2019
Temperature: 8.0°C (46°F)
Dewpoint: 7.0°C (45°F) [RH = 93%]
Pressure (altimeter): 30.12 inches Hg (1020.0 mb)
Winds: from the NNE (30 degrees) at 6 MPH (5 knots; 2.6 m/s)
Visibility: 2.49 miles (4.01 km)
Ceiling: 9000 feet AGL
Clouds: few clouds at 1500 feet AGL
scattered clouds at 4000 feet AGL
broken clouds at 9000 feet AGL
Weather: -RA BR  (light rain, mist)

METAR text: RJOM 182110Z 04005KT 6000 -RA FEW015 BKN040 BKN060 08/07 Q1020 RMK 1ST015 5SC040 6AC060 A3014
Conditions at: RJOM (MATSUYAMA AIRPOR, JP) observed 2110 UTC 18 February 2019
Temperature: 8.0°C (46°F)
Dewpoint: 7.0°C (45°F) [RH = 93%]
Pressure (altimeter): 30.12 inches Hg (1020.0 mb)
Winds: from the NE (40 degrees) at 6 MPH (5 knots; 2.6 m/s)
Visibility: 4 miles ( 6 km)
Ceiling: 4000 feet AGL
Clouds: few clouds at 1500 feet AGL
broken clouds at 4000 feet AGL
broken clouds at 6000 feet AGL
Weather: -RA  (light rain)

METAR text: RJOM 181200Z 13003KT 9999 FEW035 SCT045 BKN080 10/02 Q1024
Conditions at: RJOM (MATSUYAMA AIRPOR, JP) observed 1200 UTC 18 February 2019
Temperature: 10.0°C (50°F)
Dewpoint: 2.0°C (36°F) [RH = 57%]
Pressure (altimeter): 30.24 inches Hg (1024.0 mb)
Winds: from the SE (130 degrees) at 3 MPH (3 knots; 1.5 m/s)
Visibility: 6 or more miles (10+ km)
Ceiling: 8000 feet AGL
Clouds: few clouds at 3500 feet AGL
scattered clouds at 4500 feet AGL
broken clouds at 8000 feet AGL
Weather: no significant weather observed at this time

METAR text: RJOM 181100Z 15004KT 9999 FEW035 SCT045 BKN160 10/03 Q1025
Conditions at: RJOM (MATSUYAMA AIRPOR, JP) observed 1100 UTC 18 February 2019
Temperature: 10.0°C (50°F)
Dewpoint: 3.0°C (37°F) [RH = 62%]
Pressure (altimeter): 30.27 inches Hg (1025.0 mb)
Winds: from the SSE (150 degrees) at 5 MPH (4 knots; 2.1 m/s)
Visibility: 6 or more miles (10+ km)
Ceiling: 16000 feet AGL
Clouds: few clouds at 3500 feet AGL
scattered clouds at 4500 feet AGL
broken clouds at 16000 feet AGL
Weather: no significant weather observed at this time

METAR text: RJOM 181000Z 31003KT 270V340 9999 FEW035 SCT045 BKN100 11/01 Q1025
Conditions at: RJOM (MATSUYAMA AIRPOR, JP) observed 1000 UTC 18 February 2019
Temperature: 11.0°C (52°F)
Dewpoint: 1.0°C (34°F) [RH = 50%]
Pressure (altimeter): 30.27 inches Hg (1025.0 mb)
Winds: from the NW (310 degrees) at 3 MPH (3 knots; 1.5 m/s)
Visibility: 6 or more miles (10+ km)
Ceiling: 10000 feet AGL
Clouds: few clouds at 3500 feet AGL
scattered clouds at 4500 feet AGL
broken clouds at 10000 feet AGL
Weather: no significant weather observed at this time

METAR text: RJOM 180900Z 32003KT 280V350 9999 FEW035 SCT050 BKN100 10/01 Q1024
Conditions at: RJOM (MATSUYAMA AIRPOR, JP) observed 0900 UTC 18 February 2019
Temperature: 10.0°C (50°F)
Dewpoint: 1.0°C (34°F) [RH = 53%]
Pressure (altimeter): 30.24 inches Hg (1024.0 mb)
Winds: from the NW (320 degrees) at 3 MPH (3 knots; 1.5 m/s)
Visibility: 6 or more miles (10+ km)
Ceiling: 10000 feet AGL
Clouds: few clouds at 3500 feet AGL
scattered clouds at 5000 feet AGL
broken clouds at 10000 feet AGL
Weather: no significant weather observed at this time

METAR text: RJOM 180800Z 36006KT 9999 FEW035 BKN110 11/M01 Q1024
Conditions at: RJOM (MATSUYAMA AIRPOR, JP) observed 0800 UTC 18 February 2019
Temperature: 11.0°C (52°F)
Dewpoint: -1.0°C (30°F) [RH = 43%]
Pressure (altimeter): 30.24 inches Hg (1024.0 mb)
Winds: from the N (360 degrees) at 7 MPH (6 knots; 3.1 m/s)
Visibility: 6 or more miles (10+ km)
Ceiling: 11000 feet AGL
Clouds: few clouds at 3500 feet AGL
broken clouds at 11000 feet AGL
Weather: no significant weather observed at this time

METAR text: RJOM 180700Z 35007KT 9999 FEW035 BKN120 11/02 Q1023
Conditions at: RJOM (MATSUYAMA AIRPOR, JP) observed 0700 UTC 18 February 2019
Temperature: 11.0°C (52°F)
Dewpoint: 2.0°C (36°F) [RH = 54%]
Pressure (altimeter): 30.21 inches Hg (1023.0 mb)
Winds: from the N (350 degrees) at 8 MPH (7 knots; 3.6 m/s)
Visibility: 6 or more miles (10+ km)
Ceiling: 12000 feet AGL
Clouds: few clouds at 3500 feet AGL
broken clouds at 12000 feet AGL
Weather: no significant weather observed at this time

METAR text: RJOM 180600Z 36009KT 9999 FEW035 10/02 Q1024
Conditions at: RJOM (MATSUYAMA AIRPOR, JP) observed 0600 UTC 18 February 2019
Temperature: 10.0°C (50°F)
Dewpoint: 2.0°C (36°F) [RH = 57%]
Pressure (altimeter): 30.24 inches Hg (1024.0 mb)
Winds: from the N (360 degrees) at 10 MPH (9 knots; 4.6 m/s)
Visibility: 6 or more miles (10+ km)
Ceiling: at least 12,000 feet AGL
Clouds: few clouds at 3500 feet AGL
Weather: no significant weather observed at this time

METAR text: RJOM 180500Z 32006KT 9999 FEW030 BKN/// 11/03 Q1024
Conditions at: RJOM (MATSUYAMA AIRPOR, JP) observed 0500 UTC 18 February 2019
Temperature: 11.0°C (52°F)
Dewpoint: 3.0°C (37°F) [RH = 58%]
Pressure (altimeter): 30.24 inches Hg (1024.0 mb)
Winds: from the NW (320 degrees) at 7 MPH (6 knots; 3.1 m/s)
Visibility: 6 or more miles (10+ km)
Ceiling: at least 12,000 feet AGL
Clouds: few clouds at 3000 feet AGL
Weather: no significant weather observed at this time

METAR text: RJOM 180400Z 30006KT 9999 FEW030 BKN/// 11/03 Q1025
Conditions at: RJOM (MATSUYAMA AIRPOR, JP) observed 0400 UTC 18 February 2019
Temperature: 11.0°C (52°F)
Dewpoint: 3.0°C (37°F) [RH = 58%]
Pressure (altimeter): 30.27 inches Hg (1025.0 mb)
Winds: from the WNW (300 degrees) at 7 MPH (6 knots; 3.1 m/s)
Visibility: 6 or more miles (10+ km)
Ceiling: at least 12,000 feet AGL
Clouds: few clouds at 3000 feet AGL
Weather: no significant weather observed at this time

METAR text: RJOM 180300Z 31005KT 270V350 9999 FEW030 BKN/// 09/01 Q1026
Conditions at: RJOM (MATSUYAMA AIRPOR, JP) observed 0300 UTC 18 February 2019
Temperature: 9.0°C (48°F)
Dewpoint: 1.0°C (34°F) [RH = 57%]
Pressure (altimeter): 30.30 inches Hg (1026.0 mb)
Winds: from the NW (310 degrees) at 6 MPH (5 knots; 2.6 m/s)
Visibility: 6 or more miles (10+ km)
Ceiling: at least 12,000 feet AGL
Clouds: few clouds at 3000 feet AGL
Weather: no significant weather observed at this time

METAR text: RJOM 180200Z 31005KT 280V350 9999 FEW025 BKN/// 09/01 Q1026
Conditions at: RJOM (MATSUYAMA AIRPOR, JP) observed 0200 UTC 18 February 2019
Temperature: 9.0°C (48°F)
Dewpoint: 1.0°C (34°F) [RH = 57%]
Pressure (altimeter): 30.30 inches Hg (1026.0 mb)
Winds: from the NW (310 degrees) at 6 MPH (5 knots; 2.6 m/s)
Visibility: 6 or more miles (10+ km)
Ceiling: at least 12,000 feet AGL
Clouds: few clouds at 2500 feet AGL
Weather: no significant weather observed at this time

METAR text: RJOM 180100Z 11005KT 9999 FEW025 BKN/// 08/M01 Q1026
Conditions at: RJOM (MATSUYAMA AIRPOR, JP) observed 0100 UTC 18 February 2019
Temperature: 8.0°C (46°F)
Dewpoint: -1.0°C (30°F) [RH = 53%]
Pressure (altimeter): 30.30 inches Hg (1026.0 mb)
Winds: from the ESE (110 degrees) at 6 MPH (5 knots; 2.6 m/s)
Visibility: 6 or more miles (10+ km)
Ceiling: at least 12,000 feet AGL
Clouds: few clouds at 2500 feet AGL
Weather: no significant weather observed at this time

METAR text: RJOM 180000Z 11008KT 9999 FEW025 BKN/// 05/M01 Q1026
Conditions at: RJOM (MATSUYAMA AIRPOR, JP) observed 0000 UTC 18 February 2019
Temperature: 5.0°C (41°F)
Dewpoint: -1.0°C (30°F) [RH = 65%]
Pressure (altimeter): 30.30 inches Hg (1026.0 mb)
Winds: from the ESE (110 degrees) at 9 MPH (8 knots; 4.1 m/s)
Visibility: 6 or more miles (10+ km)
Ceiling: at least 12,000 feet AGL
Clouds: few clouds at 2500 feet AGL
Weather: no significant weather observed at this time

METAR text: RJOM 172300Z 11010KT 9999 FEW025 BKN/// 04/M01 Q1026
Conditions at: RJOM (MATSUYAMA AIRPOR, JP) observed 2300 UTC 17 February 2019
Temperature: 4.0°C (39°F)
Dewpoint: -1.0°C (30°F) [RH = 70%]
Pressure (altimeter): 30.30 inches Hg (1026.0 mb)
Winds: from the ESE (110 degrees) at 12 MPH (10 knots; 5.1 m/s)
Visibility: 6 or more miles (10+ km)
Ceiling: at least 12,000 feet AGL
Clouds: few clouds at 2500 feet AGL
Weather: no significant weather observed at this time

Forecast for: AMD
Text: TAF AMD RJOM 190610Z 1906/2012 36012KT 9999 FEW015 SCT020 BKN030
Forecast period: 0600 to 0800 UTC 19 February 2019
Forecast type: FROM: standard forecast or significant change
Winds: from the N (360 degrees) at 14 MPH (12 knots; 6.2 m/s)
Visibility: 6 or more miles 10+ km)
Ceiling: 3000 feet AGL
Clouds: few clouds at 1500 feet AGL
scattered clouds at 2000 feet AGL
broken clouds at 3000 feet AGL
Weather: no significant weather forecast for this period
Text: BECMG 1908/1910 26012KT
Forecast period: 0800 UTC 19 February 2019 to 0900 UTC 20 February 2019
Forecast type: BECOMING: Conditions expected to become as follows by 1000 UTC 19 February 2019
Winds: from the W (260 degrees) at 14 MPH (12 knots; 6.2 m/s)
Visibility: 6 or more miles 10+ km)
Ceiling: 3000 feet AGL
Clouds: few clouds at 1500 feet AGL
scattered clouds at 2000 feet AGL
broken clouds at 3000 feet AGL
Weather: no significant weather forecast for this period
Text: BECMG 2009/2012 34011KT
Forecast period: 0900 to 1200 UTC 20 February 2019
Forecast type: BECOMING: Conditions expected to become as follows by 1200 UTC 20 February 2019
Winds: from the NNW (340 degrees) at 13 MPH (11 knots; 5.7 m/s)
Visibility: 6 or more miles 10+ km)
Ceiling: 3000 feet AGL
Clouds: few clouds at 1500 feet AGL
scattered clouds at 2000 feet AGL
broken clouds at 3000 feet AGL
Weather: no significant weather forecast for this period